<rt id="ch6ek"><meter id="ch6ek"></meter></rt>

      1. <tt id="ch6ek"><form id="ch6ek"><samp id="ch6ek"></samp></form></tt>
          <rt id="ch6ek"><optgroup id="ch6ek"></optgroup></rt>
          <rt id="ch6ek"></rt>
        1. 當前位置:首頁 > 金融市場 > 外匯牌價
          網銀登錄

          中國銀行外匯牌價

          起始時間: 結束時間: 牌價選擇:
          貨幣名稱 現匯買入價 現鈔買入價 現匯賣出價 現鈔賣出價 中行折算價 發布日期 發布時間
          阿聯酋迪拉姆 171.33 184.06 177.84 2020.12.30 11:53:04 11:53:04
          澳大利亞元 496.93 481.49 500.59 502.81 497.13 2020.12.30 11:53:04 11:53:04
          巴西里亞爾 120.16 136.44 125.33 2020.12.30 11:53:04 11:53:04
          加拿大元 507.98 491.94 511.72 513.98 509.59 2020.12.30 11:53:04 11:53:04
          瑞士法郎 736.47 713.75 741.65 744.82 738.91 2020.12.30 11:53:04 11:53:04
          丹麥克朗 107.26 103.95 108.12 108.64 107.61 2020.12.30 11:53:04 11:53:04
          歐元 798.54 773.73 804.43 807.02 800.59 2020.12.30 11:53:04 11:53:04
          英鎊 880.05 852.71 886.53 890.46 881.78 2020.12.30 11:53:04 11:53:04
          港幣 83.94 83.28 84.28 84.28 84.26 2020.12.30 11:53:04 11:53:04
          印尼盧比 0.0447 0.0482 0.0462 2020.12.30 11:53:04 11:53:04
          印度盧比 8.3586 9.4256 8.8959 2020.12.30 11:53:04 11:53:04
          日元 6.29 6.0946 6.3363 6.346 6.308 2020.12.30 11:53:04 11:53:04
          韓國元 0.5979 0.5769 0.6027 0.6248 0.5987 2020.12.30 11:53:04 11:53:04
          澳門元 81.6 78.86 81.92 84.65 81.81 2020.12.30 11:53:04 11:53:04
          林吉特 160.86 162.32 161.41 2020.12.30 11:53:04 11:53:04
          挪威克朗 75.73 73.39 76.33 76.7 75.8 2020.12.30 11:53:04 11:53:04
          新西蘭元 466.21 451.83 469.49 475.94 467.13 2020.12.30 11:53:04 11:53:04
          菲律賓比索 13.5 13.04 13.66 14.27 13.6 2020.12.30 11:53:04 11:53:04
          盧布 8.83 8.29 8.91 9.24 8.83 2020.12.30 11:53:04 11:53:04
          沙特里亞爾 168.95 178.61 174.06 2020.12.30 11:53:04 11:53:04
          瑞典克朗 79.44 76.99 80.08 80.46 79.65 2020.12.30 11:53:04 11:53:04
          新加坡元 490.54 475.4 493.98 496.44 492.18 2020.12.30 11:53:04 11:53:04
          泰國銖 21.63 20.97 21.81 22.5 21.74 2020.12.30 11:53:04 11:53:04
          土耳其里拉 88.08 83.76 88.78 101.94 88.36 2020.12.30 11:53:04 11:53:04
          新臺幣 22.4 24.27 23.23 2020.12.30 11:53:04 11:53:04
          美元 650.92 645.63 653.68 653.68 653.25 2020.12.30 11:53:04 11:53:04
          南非蘭特 44.29 40.89 44.59 48.07 44.39 2020.12.30 11:53:04 11:53:04

          10

          湖北11选5 www.switchgeardubai.net:阿拉善左旗| www.razorcrusaders.com:潮安县| www.accommodations-around-the-world.com:资溪县| www.maidou5.com:云阳县| www.golddragonrecruiter.com:阿图什市| www.bebeksekeri-tr.com:杭锦旗| www.mugua668.com:象山县| www.universaltradekey.com:赣榆县| www.expressmasti.com:阳城县| www.unifykorea2009.com:甘南县| www.yungtsai.com:雷波县| www.toystorez.com:南丹县| www.3hjapanese.com:锡林郭勒盟| www.takwed.com:伽师县| www.bailinet.com:八宿县| www.communitydininghub.com:胶州市| www.ycjjshg.com:元江| www.daggervale.org:运城市| www.thisdayinmusicapps.com:遂宁市| www.mortalgames.net:兰州市| www.tjshuxin.com:通化市| www.brysonadventures.com:余干县| www.yixingjiaoyu.com:芒康县| www.auktis.com:茂名市| www.guggamugga.com:元阳县| www.168wjcw.com:蒙自县| www.taipeisailing.org:玛曲县| www.hg51456.com:武隆县| www.allsmsfree.com:灌阳县| www.xnkdaiviet.com:常山县| www.wwwhg9693.com:文水县| www.iamreviewing.com:焉耆| www.aumetrodeslilas.com:额济纳旗| www.cadenceworks.com:大港区| www.qylvod.com:沅陵县| www.milwaukeemillennial.com:嘉禾县| www.matiastroncoso.com:四平市| www.hoausp.com:遂溪县| www.modemize.com:保山市| www.jydproducts.com:华亭县| www.mcmhonmono.com:疏附县| www.thehelvetia.com:新河县| www.zijiamai.com:澳门| www.99533b.com:衡南县| www.ddmjml.com:衡山县| www.wi-fisys.com:广汉市| www.kagithanecicekci.com:云龙县| www.therapy-space.com:贵阳市| www.medicalhealthblog.com:凤翔县| www.vintage-denim.com:石门县| www.killdevilhillbrooklyn.com:开封市| www.kerala-honeymoon-packages.com:汉源县| www.mop-mrp.com:绩溪县| www.mescoindia.com:伊宁县| www.marcusminge.com:福建省| www.ehbermanlaw.com:孟连| www.jasmineevanscoach.com:罗定市| www.sonstudios.org:普洱| www.bjbthj.com:石城县| www.chocolate-artist.com:镇巴县| www.15221109153ks.com:浮梁县| www.royaltyaffairs.com:乡城县| www.himanidalmia.com:绿春县| www.wx-culture.com:汶川县| www.028tanlou.com:合作市| www.wwwhg5416.com:高邑县| www.cawwatches.com:和政县| www.mikepetch.com:临武县| www.relationshipbreakp.com:钟山县| www.yongqinlaw.com:漯河市| www.xoolyi.com:邯郸县| www.arecipesite.com:绵竹市| www.hk211.com:建瓯市| www.jyxjbj.com:伊宁县| www.cnfzsb.com:博罗县| www.hyrscg.net:商南县| www.hg51456.com:视频| www.kates-garden.com:怀化市| www.silvermx5.com:皋兰县| www.ssxnsy.com:龙里县| www.kk43kk.com:裕民县| www.bytejs.com:喀什市| www.poengun.com:临洮县| www.pj43730.com:广元市|